Time;durP1;ratioP1;P1;durP2;ratioP2;P2;SDS_P1;SDS_P2;PMS_P1;PMS_P2;Temp;Humidity;BMP_temperature;BMP_pressure;BME280_temperature;BME280_humidity;BME280_pressure;Samples;Min_cycle;Max_cycle;Signal;HPM_P1;HPM_P2
2024/01/07 00:01:49;;;;;;;27.90;18.00;;;5.80;99.90;;;;;;5031367;28;20515;-78
2024/01/07 00:04:15;;;;;;;27.15;17.85;;;5.80;99.90;;;;;;5025160;28;20208;-78
2024/01/07 00:06:41;;;;;;;28.20;17.90;;;5.80;99.90;;;;;;5031613;28;20251;-78
2024/01/07 00:09:07;;;;;;;27.60;17.60;;;5.90;99.90;;;;;;5032371;28;20170;-78
2024/01/07 00:11:33;;;;;;;27.93;17.50;;;5.90;99.90;;;;;;5033159;28;20599;-78
2024/01/07 00:13:58;;;;;;;27.63;18.30;;;5.90;99.90;;;;;;5016557;28;20186;-78
2024/01/07 00:16:24;;;;;;;23.77;16.70;;;5.80;99.90;;;;;;5031133;28;20197;-78
2024/01/07 00:18:49;;;;;;;27.10;16.50;;;5.80;99.90;;;;;;5012786;28;20212;-78
2024/01/07 00:21:15;;;;;;;25.23;17.77;;;5.80;99.90;;;;;;5031444;28;20196;-78
2024/01/07 00:23:41;;;;;;;27.80;18.97;;;5.80;99.90;;;;;;5030567;28;20178;-78
2024/01/07 00:26:07;;;;;;;26.90;18.17;;;5.90;99.90;;;;;;5024216;28;20200;-77
2024/01/07 00:28:33;;;;;;;28.85;18.27;;;5.90;99.90;;;;;;5032303;28;20180;-78
2024/01/07 00:30:58;;;;;;;30.73;16.53;;;5.90;99.90;;;;;;5015016;28;20189;-78
2024/01/07 00:33:24;;;;;;;26.20;17.50;;;5.90;99.90;;;;;;5032722;28;20647;-78
2024/01/07 00:35:50;;;;;;;25.27;16.50;;;5.90;99.90;;;;;;5022913;28;20182;-78
2024/01/07 00:38:15;;;;;;;20.53;14.67;;;5.90;99.90;;;;;;4991041;28;20251;-78
2024/01/07 00:40:42;;;;;;;17.65;12.35;;;5.90;99.90;;;;;;5032519;28;20170;-78
2024/01/07 00:43:07;;;;;;;16.50;11.57;;;5.90;99.90;;;;;;5030871;28;20695;-78
2024/01/07 00:45:33;;;;;;;14.90;11.63;;;5.80;99.90;;;;;;5054718;22;20645;-74
2024/01/07 00:47:59;;;;;;;14.27;9.80;;;5.80;99.90;;;;;;5039635;28;20193;-74
2024/01/07 00:50:24;;;;;;;15.70;10.90;;;5.80;99.90;;;;;;5012883;28;20224;-74
2024/01/07 00:52:51;;;;;;;13.90;11.07;;;5.80;99.90;;;;;;5052055;28;20587;-74
2024/01/07 00:55:17;;;;;;;12.40;9.30;;;5.80;99.90;;;;;;5017818;28;20192;-74
2024/01/07 00:57:43;;;;;;;12.83;9.20;;;5.80;99.90;;;;;;5032830;28;20673;-74
2024/01/07 01:00:09;;;;;;;12.13;9.33;;;5.80;99.90;;;;;;5029491;28;20940;-74
2024/01/07 01:02:35;;;;;;;13.68;9.55;;;5.90;99.90;;;;;;5054218;28;20238;-74
2024/01/07 01:05:02;;;;;;;12.57;9.32;;;5.80;99.90;;;;;;5037378;28;20184;-74
2024/01/07 01:07:28;;;;;;;11.00;9.23;;;5.90;99.90;;;;;;5020379;28;20192;-74
2024/01/07 01:09:54;;;;;;;12.35;8.30;;;5.90;99.90;;;;;;5035826;28;20176;-74
2024/01/07 01:12:19;;;;;;;12.13;8.70;;;5.90;99.90;;;;;;5065537;28;20164;-73
2024/01/07 01:14:45;;;;;;;12.80;9.30;;;5.90;99.90;;;;;;5072010;28;20196;-74
2024/01/07 01:17:11;;;;;;;14.50;10.40;;;5.90;99.90;;;;;;5053252;28;20311;-74
2024/01/07 01:19:37;;;;;;;11.40;8.50;;;5.90;99.90;;;;;;5048624;28;20201;-74
2024/01/07 01:22:03;;;;;;;11.23;8.40;;;5.90;99.90;;;;;;5050020;28;20181;-74
2024/01/07 01:24:29;;;;;;;10.80;7.95;;;5.90;99.90;;;;;;5032280;28;20175;-74
2024/01/07 01:26:55;;;;;;;10.93;8.13;;;5.90;99.90;;;;;;5053562;28;20196;-74
2024/01/07 01:29:20;;;;;;;12.10;8.90;;;5.90;99.90;;;;;;5036641;28;20172;-74
2024/01/07 01:31:46;;;;;;;10.90;7.40;;;5.90;99.90;;;;;;5037118;28;20230;-74
2024/01/07 01:34:12;;;;;;;10.15;7.45;;;5.90;99.90;;;;;;5036899;28;20181;-74
2024/01/07 01:36:38;;;;;;;11.43;9.50;;;5.90;99.90;;;;;;5052355;28;20200;-73
2024/01/07 01:39:04;;;;;;;10.73;7.17;;;6.00;99.90;;;;;;5053024;28;21010;-74
2024/01/07 01:41:29;;;;;;;12.80;9.77;;;6.00;99.90;;;;;;5053678;28;20180;-74
2024/01/07 01:43:59;;;;;;;10.73;8.67;;;6.00;99.90;;;;;;5036658;28;20226;-74
2024/01/07 01:46:25;;;;;;;10.82;7.88;;;6.00;99.90;;;;;;5071123;28;20200;-74
2024/01/07 01:48:51;;;;;;;10.93;7.73;;;6.00;99.90;;;;;;5070626;28;20204;-74
2024/01/07 01:51:18;;;;;;;10.75;9.07;;;6.00;99.90;;;;;;5020090;28;20598;-74
2024/01/07 01:53:45;;;;;;;10.55;7.78;;;5.90;99.90;;;;;;5036673;28;20168;-74
2024/01/07 01:56:12;;;;;;;10.23;7.88;;;5.90;99.90;;;;;;5033494;28;20188;-74
2024/01/07 01:58:38;;;;;;;10.13;7.65;;;5.90;99.90;;;;;;5015538;28;20689;-74
2024/01/07 02:01:04;;;;;;;11.03;7.43;;;6.00;99.90;;;;;;5036640;28;20184;-74
2024/01/07 02:03:30;;;;;;;9.43;6.97;;;6.00;99.90;;;;;;5052911;28;20200;-74
2024/01/07 02:05:57;;;;;;;11.63;8.80;;;6.00;99.90;;;;;;5052589;28;20239;-74
2024/01/07 02:08:24;;;;;;;10.20;8.25;;;6.00;99.90;;;;;;5013235;28;20188;-74
2024/01/07 02:11:16;;;;;;;8.98;6.93;;;6.00;99.90;;;;;;5055938;28;20210;-74
2024/01/07 02:13:41;;;;;;;10.95;7.13;;;6.00;99.90;;;;;;5028008;28;20218;-74
2024/01/07 02:16:07;;;;;;;14.17;9.43;;;6.00;99.90;;;;;;5036332;28;20223;-74
2024/01/07 02:18:33;;;;;;;9.53;6.73;;;6.00;99.90;;;;;;5035438;28;20581;-73
2024/01/07 02:20:59;;;;;;;9.65;7.65;;;5.90;99.90;;;;;;5027829;28;20195;-74
2024/01/07 02:23:24;;;;;;;9.83;8.17;;;5.90;99.90;;;;;;5052630;28;20176;-74
2024/01/07 02:25:50;;;;;;;8.90;7.23;;;5.90;99.90;;;;;;5035946;28;20250;-74
2024/01/07 02:28:17;;;;;;;10.57;8.32;;;5.90;99.90;;;;;;5035549;28;20207;-74
2024/01/07 02:30:43;;;;;;;10.17;7.97;;;5.90;99.90;;;;;;5044847;28;20216;-74
2024/01/07 02:33:08;;;;;;;10.57;7.50;;;5.90;99.90;;;;;;5070154;28;20221;-74
2024/01/07 02:35:35;;;;;;;9.75;7.35;;;5.90;99.90;;;;;;5052498;28;20172;-74
2024/01/07 02:38:00;;;;;;;9.10;7.73;;;5.90;99.90;;;;;;5043618;28;20727;-74
2024/01/07 02:40:26;;;;;;;10.83;7.50;;;5.90;99.90;;;;;;5052545;28;20641;-74
2024/01/07 02:42:52;;;;;;;11.80;8.93;;;5.90;99.90;;;;;;5042817;28;20257;-74
2024/01/07 02:45:18;;;;;;;9.70;8.37;;;5.90;99.90;;;;;;5055638;28;20234;-75
2024/01/07 02:47:44;;;;;;;11.10;8.20;;;5.90;99.90;;;;;;5069124;28;20303;-74
2024/01/07 02:50:10;;;;;;;11.27;8.20;;;5.90;99.90;;;;;;5052730;28;20263;-74
2024/01/07 02:52:35;;;;;;;12.90;8.90;;;5.90;99.90;;;;;;5019362;28;20638;-74
2024/01/07 02:55:01;;;;;;;15.67;11.13;;;5.90;99.90;;;;;;5035676;28;20245;-74
2024/01/07 02:57:27;;;;;;;11.40;9.00;;;5.90;99.90;;;;;;5035015;28;20283;-74
2024/01/07 02:59:53;;;;;;;9.87;7.60;;;5.90;99.90;;;;;;5052407;28;20590;-74
2024/01/07 03:02:19;;;;;;;11.60;8.53;;;5.90;99.90;;;;;;5052136;28;20172;-74
2024/01/07 03:04:44;;;;;;;14.00;9.70;;;5.90;99.90;;;;;;5052244;28;20670;-75
2024/01/07 03:07:10;;;;;;;13.73;10.97;;;5.90;99.90;;;;;;5061039;28;20196;-74
2024/01/07 03:09:36;;;;;;;12.27;9.93;;;5.90;99.90;;;;;;5035723;28;20283;-74
2024/01/07 03:12:01;;;;;;;12.90;8.27;;;5.90;99.90;;;;;;5070217;28;20182;-74
2024/01/07 03:14:28;;;;;;;12.50;9.30;;;5.90;99.90;;;;;;5070207;28;20630;-74
2024/01/07 03:16:53;;;;;;;13.65;10.57;;;5.90;99.90;;;;;;5034585;28;20200;-74
2024/01/07 03:19:20;;;;;;;14.37;10.70;;;5.80;99.90;;;;;;5027560;28;20249;-74
2024/01/07 03:21:47;;;;;;;12.50;9.63;;;5.80;99.90;;;;;;5069973;28;20184;-74
2024/01/07 03:24:13;;;;;;;12.05;10.07;;;5.80;99.90;;;;;;5035199;28;20718;-74
2024/01/07 03:26:38;;;;;;;14.50;9.10;;;5.80;99.90;;;;;;5052056;28;20287;-74
2024/01/07 03:29:04;;;;;;;11.10;8.97;;;5.80;99.90;;;;;;5031068;28;20217;-74
2024/01/07 03:31:30;;;;;;;14.30;10.80;;;5.80;99.90;;;;;;5039656;28;20630;-74
2024/01/07 03:33:56;;;;;;;13.83;11.13;;;5.80;99.90;;;;;;5038664;28;20615;-74
2024/01/07 03:36:22;;;;;;;11.02;8.40;;;5.70;99.90;;;;;;5048614;28;20199;-74
2024/01/07 03:38:48;;;;;;;11.40;9.48;;;5.70;99.90;;;;;;5069147;28;20204;-74
2024/01/07 03:41:20;;;;;;;15.27;10.10;;;5.70;99.90;;;;;;5056488;28;20543;-74
2024/01/07 03:43:47;;;;;;;14.43;11.05;;;5.70;99.90;;;;;;5024439;28;20184;-74
2024/01/07 03:46:13;;;;;;;14.80;10.40;;;5.60;99.90;;;;;;5051347;28;20200;-74
2024/01/07 03:48:38;;;;;;;16.10;11.18;;;5.60;99.90;;;;;;5050925;28;20191;-74
2024/01/07 03:51:04;;;;;;;16.40;11.20;;;5.60;99.90;;;;;;5051762;28;20183;-73
2024/01/07 03:53:30;;;;;;;16.63;12.60;;;5.60;99.90;;;;;;5069541;28;20616;-74
2024/01/07 03:55:56;;;;;;;16.03;10.90;;;5.60;99.90;;;;;;5035017;28;20580;-74
2024/01/07 03:58:22;;;;;;;16.92;11.88;;;5.50;99.90;;;;;;5068824;28;20240;-74
2024/01/07 04:00:47;;;;;;;17.53;12.67;;;5.50;99.90;;;;;;5050838;28;20203;-74
2024/01/07 04:03:13;;;;;;;17.43;13.70;;;5.50;99.90;;;;;;5072884;28;20187;-74
2024/01/07 04:05:38;;;;;;;16.97;13.17;;;5.50;99.90;;;;;;5046530;28;20211;-74
2024/01/07 04:08:04;;;;;;;16.80;12.40;;;5.50;99.90;;;;;;5052849;28;20240;-74
2024/01/07 04:10:30;;;;;;;21.57;14.80;;;5.50;99.90;;;;;;5015559;28;20181;-74
2024/01/07 04:12:56;;;;;;;18.27;13.33;;;5.50;99.90;;;;;;5033201;28;20688;-74
2024/01/07 04:15:22;;;;;;;19.07;14.00;;;5.50;99.90;;;;;;5015402;28;20593;-74
2024/01/07 04:17:47;;;;;;;16.50;12.00;;;5.50;99.90;;;;;;5014460;28;20202;-74
2024/01/07 04:20:14;;;;;;;24.40;16.60;;;5.50;99.90;;;;;;5018310;28;20650;-74
2024/01/07 04:22:39;;;;;;;17.70;13.95;;;5.50;99.90;;;;;;5052937;28;20173;-74
2024/01/07 04:25:10;;;;;;;16.13;13.80;;;5.40;99.90;;;;;;5052894;28;20260;-74
2024/01/07 04:27:36;;;;;;;25.40;17.33;;;5.40;99.90;;;;;;5052234;28;20283;-74
2024/01/07 04:30:03;;;;;;;19.13;14.35;;;5.40;99.90;;;;;;5033779;28;20203;-74
2024/01/07 04:32:29;;;;;;;19.15;13.82;;;5.40;99.90;;;;;;5032907;28;20201;-74
2024/01/07 04:34:56;;;;;;;16.73;12.70;;;5.40;99.90;;;;;;5017283;28;20209;-74
2024/01/07 04:37:21;;;;;;;16.80;13.05;;;5.40;99.90;;;;;;5017951;28;20196;-74
2024/01/07 04:39:47;;;;;;;16.43;11.67;;;5.40;99.90;;;;;;5052818;28;20577;-74
2024/01/07 04:42:13;;;;;;;16.38;12.25;;;5.40;99.90;;;;;;5001085;28;20182;-74
2024/01/07 04:44:39;;;;;;;17.98;13.90;;;5.40;99.90;;;;;;5052289;28;20259;-74
2024/01/07 04:47:22;;;;;;;19.77;13.97;;;5.50;99.90;;;;;;5051203;28;20244;-74
2024/01/07 04:49:47;;;;;;;17.50;12.70;;;5.50;99.90;;;;;;5015115;28;20597;-74
2024/01/07 04:52:13;;;;;;;17.23;13.20;;;5.40;99.90;;;;;;5032629;28;20724;-74
2024/01/07 04:54:39;;;;;;;16.57;12.97;;;5.40;99.90;;;;;;5014620;28;20174;-74
2024/01/07 04:57:05;;;;;;;19.87;14.47;;;5.40;99.90;;;;;;5014669;28;20240;-74
2024/01/07 04:59:30;;;;;;;19.23;14.45;;;5.40;99.90;;;;;;5013795;28;20223;-74
2024/01/07 05:01:56;;;;;;;16.00;11.50;;;5.40;99.90;;;;;;5014739;28;20644;-74
2024/01/07 05:04:22;;;;;;;15.83;11.40;;;5.40;99.90;;;;;;5032269;28;20639;-74
2024/01/07 05:06:48;;;;;;;13.15;10.50;;;5.40;99.90;;;;;;5014605;28;20226;-74
2024/01/07 05:09:13;;;;;;;16.07;12.67;;;5.40;99.90;;;;;;5014655;28;20251;-74
2024/01/07 05:11:40;;;;;;;15.00;11.50;;;5.40;99.90;;;;;;4998746;28;20762;-74
2024/01/07 05:14:05;;;;;;;13.63;10.50;;;5.40;99.90;;;;;;5013884;28;20181;-74
2024/01/07 05:16:31;;;;;;;15.67;12.20;;;5.40;99.90;;;;;;5014316;28;20702;-74
2024/01/07 05:18:57;;;;;;;16.77;13.10;;;5.40;99.90;;;;;;4997209;28;20303;-74
2024/01/07 05:21:23;;;;;;;13.53;11.10;;;5.30;99.90;;;;;;5033658;28;21213;-74
2024/01/07 05:23:48;;;;;;;14.30;10.67;;;5.30;99.90;;;;;;5033952;28;20193;-74
2024/01/07 05:26:14;;;;;;;19.43;13.10;;;5.30;99.90;;;;;;5033595;28;20258;-74
2024/01/07 05:28:40;;;;;;;14.18;11.23;;;5.30;99.90;;;;;;5026981;28;20271;-74
2024/01/07 05:31:17;;;;;;;14.37;11.77;;;5.30;99.90;;;;;;5041187;28;20179;-74
2024/01/07 05:33:44;;;;;;;15.23;11.45;;;5.20;99.90;;;;;;5051275;28;20180;-74
2024/01/07 05:36:13;;;;;;;19.30;12.75;;;5.20;99.90;;;;;;5033776;28;20220;-74
2024/01/07 05:38:38;;;;;;;15.93;11.23;;;5.20;99.90;;;;;;5042617;28;20282;-73
2024/01/07 05:41:05;;;;;;;14.63;11.97;;;5.20;99.90;;;;;;5033684;28;20626;-73
2024/01/07 05:43:30;;;;;;;15.48;12.43;;;5.20;99.90;;;;;;5027656;28;20538;-73
2024/01/07 05:45:56;;;;;;;14.93;11.40;;;5.20;99.90;;;;;;5031375;28;20210;-73
2024/01/07 05:48:22;;;;;;;15.77;11.50;;;5.20;99.90;;;;;;5013224;28;20182;-73
2024/01/07 05:50:48;;;;;;;13.45;11.02;;;5.20;99.90;;;;;;5013696;28;20680;-73
2024/01/07 05:53:14;;;;;;;15.60;11.73;;;5.20;99.90;;;;;;5013689;28;20608;-74
2024/01/07 05:55:40;;;;;;;12.90;10.17;;;5.20;99.90;;;;;;5013610;28;20178;-74
2024/01/07 05:58:06;;;;;;;13.90;10.63;;;5.10;99.90;;;;;;5012786;28;20545;-74
2024/01/07 06:00:31;;;;;;;16.13;12.40;;;5.10;99.90;;;;;;5044226;28;20184;-74
2024/01/07 06:02:57;;;;;;;14.20;11.23;;;5.10;99.90;;;;;;5051229;28;20200;-74
2024/01/07 06:05:23;;;;;;;15.07;11.73;;;5.10;99.90;;;;;;5033118;28;20172;-74
2024/01/07 06:07:49;;;;;;;18.60;13.80;;;5.10;99.90;;;;;;5050482;28;20235;-74
2024/01/07 06:10:15;;;;;;;17.20;12.57;;;5.10;99.90;;;;;;5040640;28;20539;-74
2024/01/07 06:12:40;;;;;;;18.03;13.73;;;5.10;99.90;;;;;;4996738;28;20664;-73
2024/01/07 06:15:06;;;;;;;15.67;13.47;;;5.10;99.90;;;;;;5013359;28;21140;-74
2024/01/07 06:17:32;;;;;;;20.52;15.00;;;5.10;99.90;;;;;;5012705;28;20271;-74
2024/01/07 06:19:58;;;;;;;17.50;12.83;;;5.10;99.90;;;;;;4996959;28;20770;-74
2024/01/07 06:22:24;;;;;;;20.30;15.77;;;5.10;99.90;;;;;;5033652;28;21136;-74
2024/01/07 06:24:49;;;;;;;18.77;12.83;;;5.10;99.90;;;;;;5050820;28;20235;-74
2024/01/07 06:27:15;;;;;;;15.97;12.13;;;5.10;99.90;;;;;;5032100;28;20255;-74
2024/01/07 06:29:41;;;;;;;17.53;12.60;;;5.10;99.90;;;;;;5032783;28;20176;-74
2024/01/07 06:32:06;;;;;;;15.30;11.87;;;5.10;99.90;;;;;;5008412;28;20659;-74
2024/01/07 06:34:33;;;;;;;14.93;12.97;;;5.10;99.90;;;;;;5032726;28;20172;-74
2024/01/07 06:36:59;;;;;;;13.93;11.50;;;5.10;99.90;;;;;;5032703;28;20201;-75
2024/01/07 06:39:28;;;;;;;16.58;10.98;;;5.10;99.90;;;;;;5015741;28;20198;-74
2024/01/07 06:41:54;;;;;;;16.80;12.20;;;5.10;99.90;;;;;;5018751;28;20565;-74
2024/01/07 06:44:19;;;;;;;16.50;12.17;;;5.10;99.90;;;;;;5051399;28;20191;-74
2024/01/07 06:46:45;;;;;;;14.63;11.97;;;5.20;99.90;;;;;;5010739;28;20243;-74
2024/01/07 06:49:11;;;;;;;13.50;10.70;;;5.20;99.90;;;;;;5049851;28;20659;-74
2024/01/07 06:51:38;;;;;;;13.80;10.63;;;5.20;99.90;;;;;;5053799;28;20550;-74
2024/01/07 06:54:05;;;;;;;12.57;10.23;;;5.20;99.90;;;;;;5021116;28;20183;-74
2024/01/07 06:56:31;;;;;;;14.38;11.32;;;5.20;99.90;;;;;;5041810;28;20250;-74
2024/01/07 06:58:56;;;;;;;14.20;11.17;;;5.20;99.90;;;;;;5018929;28;20683;-74
2024/01/07 07:01:23;;;;;;;16.70;12.30;;;5.20;99.90;;;;;;5045444;28;20204;-74
2024/01/07 07:03:49;;;;;;;15.32;11.07;;;5.20;99.90;;;;;;5045795;28;20585;-74
2024/01/07 07:06:16;;;;;;;12.50;10.60;;;5.20;99.90;;;;;;5009429;28;20204;-75
2024/01/07 07:08:42;;;;;;;14.77;10.93;;;5.20;99.90;;;;;;5018062;28;20169;-74
2024/01/07 07:11:07;;;;;;;13.80;10.30;;;5.20;99.90;;;;;;5047056;28;20264;-74
2024/01/07 07:13:33;;;;;;;15.03;12.40;;;5.20;99.90;;;;;;5009906;28;20168;-74
2024/01/07 07:15:59;;;;;;;16.03;11.07;;;5.20;99.90;;;;;;5034087;28;20313;-74
2024/01/07 07:18:25;;;;;;;17.08;12.68;;;5.20;99.90;;;;;;5019692;28;20193;-74
2024/01/07 07:20:51;;;;;;;14.53;10.90;;;5.20;99.90;;;;;;5024947;28;20692;-74
2024/01/07 07:23:17;;;;;;;15.40;12.00;;;5.20;99.90;;;;;;5039441;28;20173;-74
2024/01/07 07:25:43;;;;;;;13.55;10.55;;;5.20;99.90;;;;;;5034439;28;20193;-74
2024/01/07 07:28:09;;;;;;;13.10;10.23;;;5.10;99.90;;;;;;5020886;28;20631;-74
2024/01/07 07:30:35;;;;;;;11.73;10.10;;;5.20;99.90;;;;;;5028896;28;20587;-74
2024/01/07 07:33:00;;;;;;;13.00;10.53;;;5.20;99.90;;;;;;5008917;28;20675;-74
2024/01/07 07:35:26;;;;;;;13.80;11.50;;;5.20;99.90;;;;;;5031340;28;20587;-74
2024/01/07 07:37:52;;;;;;;12.37;10.93;;;5.20;99.90;;;;;;5041341;28;20193;-75
2024/01/07 07:40:18;;;;;;;13.05;11.30;;;5.20;99.90;;;;;;5048180;28;20188;-74
2024/01/07 07:42:44;;;;;;;11.63;9.80;;;5.20;99.90;;;;;;5009056;28;20197;-74
2024/01/07 07:45:10;;;;;;;15.13;11.13;;;5.20;99.90;;;;;;5040688;28;20212;-74
2024/01/07 07:47:36;;;;;;;10.43;9.32;;;5.20;99.90;;;;;;5031534;28;20204;-75
2024/01/07 07:50:02;;;;;;;11.83;10.40;;;5.20;99.90;;;;;;5044182;28;20669;-75
2024/01/07 07:52:29;;;;;;;12.82;10.35;;;5.20;99.90;;;;;;5028540;28;20178;-75
2024/01/07 07:54:54;;;;;;;15.40;11.40;;;5.20;99.90;;;;;;5026056;28;20200;-74
2024/01/07 07:57:21;;;;;;;13.60;10.50;;;5.20;99.90;;;;;;5033638;28;20201;-74
2024/01/07 07:59:48;;;;;;;11.40;9.48;;;5.10;99.90;;;;;;5029667;28;20866;-74
2024/01/07 08:02:14;;;;;;;12.52;9.80;;;5.10;99.90;;;;;;5035552;28;20181;-75
2024/01/07 08:04:43;;;;;;;13.70;10.33;;;5.10;99.90;;;;;;5015753;28;20253;-74
2024/01/07 08:07:09;;;;;;;12.85;10.73;;;5.10;99.90;;;;;;5015097;28;20209;-74
2024/01/07 08:09:37;;;;;;;9.93;8.70;;;5.10;99.90;;;;;;5015396;28;20178;-77
2024/01/07 08:12:04;;;;;;;13.52;11.18;;;5.20;99.90;;;;;;5015775;28;20268;-74
2024/01/07 08:14:31;;;;;;;11.80;9.73;;;5.20;99.90;;;;;;5033082;28;20192;-74
2024/01/07 08:16:56;;;;;;;11.32;9.75;;;5.20;99.90;;;;;;5015391;28;20288;-75
2024/01/07 08:19:22;;;;;;;13.70;10.10;;;5.20;99.90;;;;;;5018994;28;20690;-74
2024/01/07 08:21:48;;;;;;;13.23;10.03;;;5.20;99.90;;;;;;5018765;28;20180;-74
2024/01/07 08:24:14;;;;;;;11.30;9.33;;;5.20;99.90;;;;;;5034613;28;20180;-74
2024/01/07 08:26:39;;;;;;;12.83;10.70;;;5.20;99.90;;;;;;5035133;28;20194;-74
2024/01/07 08:29:05;;;;;;;10.70;9.23;;;5.20;99.90;;;;;;5052267;28;20189;-75
2024/01/07 08:31:31;;;;;;;13.60;10.93;;;5.20;99.90;;;;;;5038338;28;20173;-74
2024/01/07 08:33:57;;;;;;;12.73;10.50;;;5.20;99.90;;;;;;5013273;28;20683;-74
2024/01/07 08:36:23;;;;;;;11.70;10.47;;;5.20;99.90;;;;;;5034879;28;20618;-74
2024/01/07 08:38:49;;;;;;;13.93;11.30;;;5.20;99.90;;;;;;5038046;28;20627;-74
2024/01/07 08:41:18;;;;;;;13.07;10.63;;;5.20;99.90;;;;;;5035836;28;20598;-74
2024/01/07 08:43:45;;;;;;;14.10;9.75;;;5.10;99.90;;;;;;5052309;28;20579;-74
2024/01/07 08:46:13;;;;;;;14.63;9.82;;;5.20;99.90;;;;;;5051323;28;20263;-75
2024/01/07 08:48:39;;;;;;;11.88;9.45;;;5.10;99.90;;;;;;4998085;28;20224;-75
2024/01/07 08:51:05;;;;;;;14.20;10.63;;;5.20;99.90;;;;;;5032522;28;20677;-74
2024/01/07 08:53:32;;;;;;;11.37;9.50;;;5.20;99.90;;;;;;5033053;28;20177;-74
2024/01/07 08:55:58;;;;;;;12.15;9.52;;;5.20;99.90;;;;;;5009661;28;20630;-75
2024/01/07 08:58:24;;;;;;;16.05;11.57;;;5.20;99.90;;;;;;5047809;28;20228;-75
2024/01/07 09:00:49;;;;;;;12.87;10.90;;;5.20;99.90;;;;;;5028355;28;20302;-75
2024/01/07 09:03:15;;;;;;;12.83;10.57;;;5.20;99.90;;;;;;5062844;28;20180;-75
2024/01/07 09:05:41;;;;;;;12.10;9.80;;;5.20;99.90;;;;;;5046566;28;20184;-75
2024/01/07 09:08:07;;;;;;;12.97;10.57;;;5.20;99.90;;;;;;5029681;28;20230;-74
2024/01/07 09:10:51;;;;;;;12.30;10.20;;;5.20;99.90;;;;;;5056580;28;20187;-73
2024/01/07 09:13:36;;;;;;;15.60;12.00;;;5.20;99.90;;;;;;5024008;28;20199;-74
2024/01/07 09:16:22;;;;;;;17.55;12.48;;;5.20;99.90;;;;;;5040862;28;20221;-75
2024/01/07 09:19:08;;;;;;;13.90;10.38;;;5.10;99.90;;;;;;5022504;28;20291;-79
2024/01/07 09:21:54;;;;;;;13.85;11.52;;;5.20;99.90;;;;;;5033763;28;20182;-79
2024/01/07 09:24:40;;;;;;;15.75;11.75;;;5.10;99.90;;;;;;5027683;28;20643;-79
2024/01/07 09:27:26;;;;;;;20.05;13.18;;;5.10;99.90;;;;;;5026607;28;20820;-79
2024/01/07 09:30:14;;;;;;;15.40;11.98;;;5.10;99.90;;;;;;5027399;28;20185;-77
2024/01/07 09:33:00;;;;;;;14.75;12.45;;;5.10;99.90;;;;;;5032112;28;20523;-79
2024/01/07 09:35:46;;;;;;;14.40;12.05;;;5.10;99.90;;;;;;5031450;28;20330;-78
2024/01/07 09:38:35;;;;;;;16.10;11.93;;;5.10;99.90;;;;;;5032233;28;20209;-77
2024/01/07 09:41:21;;;;;;;16.65;11.88;;;5.10;99.90;;;;;;5031740;28;20181;-78
2024/01/07 09:44:08;;;;;;;11.80;10.45;;;5.10;99.90;;;;;;5032629;28;20658;-79
2024/01/07 09:46:56;;;;;;;13.02;10.25;;;5.20;99.90;;;;;;5025583;28;20674;-78
2024/01/07 09:49:43;;;;;;;12.85;10.00;;;5.10;99.90;;;;;;5029877;28;20227;-78
2024/01/07 09:52:30;;;;;;;11.57;9.85;;;5.10;99.90;;;;;;5031132;28;20776;-78
2024/01/07 09:55:39;;;;;;;9.80;8.80;;;5.10;99.90;;;;;;5017280;28;20216;-79
2024/01/07 09:58:26;;;;;;;11.10;9.48;;;5.10;99.90;;;;;;5044807;28;20755;-79
2024/01/07 10:01:12;;;;;;;10.75;8.32;;;5.10;99.90;;;;;;5047512;28;20176;-79
2024/01/07 10:03:58;;;;;;;11.18;9.82;;;5.10;99.90;;;;;;5043570;28;20226;-77
2024/01/07 10:06:45;;;;;;;12.07;9.40;;;5.10;99.90;;;;;;5034269;28;20247;-77
2024/01/07 10:09:33;;;;;;;10.68;8.32;;;5.20;99.90;;;;;;5044882;28;20207;-77
2024/01/07 10:12:23;;;;;;;10.43;7.93;;;5.20;99.90;;;;;;5049634;28;20184;-77
2024/01/07 10:15:09;;;;;;;12.38;9.98;;;5.20;99.90;;;;;;5045840;28;20642;-77
2024/01/07 10:18:02;;;;;;;9.32;8.43;;;5.20;99.90;;;;;;5033372;28;20653;-77
2024/01/07 10:20:48;;;;;;;11.35;9.27;;;5.20;99.90;;;;;;5013555;28;20176;-77
2024/01/07 10:23:34;;;;;;;11.18;9.43;;;5.20;99.90;;;;;;5030836;28;20185;-77
2024/01/07 10:26:20;;;;;;;8.95;8.05;;;5.20;99.90;;;;;;5033428;28;20747;-77
2024/01/07 10:29:10;;;;;;;8.57;7.53;;;5.20;99.90;;;;;;5032686;28;20188;-77
2024/01/07 10:31:58;;;;;;;7.90;6.95;;;5.10;99.90;;;;;;5033231;28;20242;-77
2024/01/07 10:34:49;;;;;;;10.73;8.32;;;5.10;99.90;;;;;;5032938;28;20196;-78
2024/01/07 10:37:35;;;;;;;7.68;6.90;;;5.10;99.90;;;;;;5032732;28;20192;-77
2024/01/07 10:40:22;;;;;;;8.32;7.47;;;5.10;99.90;;;;;;5046740;28;20271;-77
2024/01/07 10:43:08;;;;;;;11.05;9.95;;;5.10;99.90;;;;;;5032229;28;20566;-78
2024/01/07 10:45:55;;;;;;;8.90;8.00;;;5.10;99.90;;;;;;5034647;28;20213;-77
2024/01/07 10:49:07;;;;;;;8.85;8.02;;;5.10;99.90;;;;;;5036836;28;20238;-77
2024/01/07 10:52:04;;;;;;;11.27;9.15;;;5.20;99.90;;;;;;5046112;28;20177;-77
2024/01/07 10:54:50;;;;;;;13.02;10.55;;;5.10;99.90;;;;;;5031723;28;20299;-77
2024/01/07 10:57:44;;;;;;;11.43;9.35;;;5.10;99.90;;;;;;5035969;28;20563;-77
2024/01/07 11:00:31;;;;;;;11.32;10.00;;;5.10;99.90;;;;;;5033762;28;20207;-77
2024/01/07 11:03:27;;;;;;;12.80;10.30;;;5.10;99.90;;;;;;5033023;28;20601;-77
2024/01/07 11:06:16;;;;;;;10.93;9.40;;;5.10;99.90;;;;;;5031829;28;20580;-76
2024/01/07 11:09:06;;;;;;;10.95;8.88;;;5.10;99.90;;;;;;5033813;28;20195;-77
2024/01/07 11:11:52;;;;;;;11.00;9.25;;;5.10;99.90;;;;;;5036663;28;20181;-77
2024/01/07 11:14:42;;;;;;;11.65;9.68;;;5.10;99.90;;;;;;5036314;28;20760;-77
2024/01/07 11:17:41;;;;;;;11.32;8.80;;;5.10;99.90;;;;;;5050710;28;20700;-78
2024/01/07 11:20:32;;;;;;;16.38;11.10;;;5.20;99.90;;;;;;5034890;28;20177;-77
2024/01/07 11:23:30;;;;;;;8.60;7.75;;;5.10;99.90;;;;;;5054373;28;20199;-76
2024/01/07 11:26:16;;;;;;;14.20;11.43;;;5.20;99.90;;;;;;5050874;28;20232;-76
2024/01/07 11:29:04;;;;;;;12.32;9.80;;;5.30;99.90;;;;;;5024490;28;20177;-77
2024/01/07 11:31:50;;;;;;;11.07;9.85;;;5.30;99.90;;;;;;5028829;28;20185;-77
2024/01/07 11:34:43;;;;;;;11.85;9.13;;;5.30;99.90;;;;;;5036242;28;20180;-78
2024/01/07 11:37:29;;;;;;;10.32;9.23;;;5.30;99.90;;;;;;5035133;28;20232;-77
2024/01/07 11:40:15;;;;;;;12.70;9.20;;;5.30;99.90;;;;;;5016343;28;20315;-77
2024/01/07 11:43:03;;;;;;;10.52;8.40;;;5.30;99.90;;;;;;5030597;28;20729;-77
2024/01/07 11:45:50;;;;;;;10.60;8.15;;;5.30;99.90;;;;;;5033672;28;20185;-77
2024/01/07 11:48:36;;;;;;;12.23;10.40;;;5.40;99.90;;;;;;5036945;28;20192;-78
2024/01/07 11:51:23;;;;;;;13.07;9.20;;;5.30;99.90;;;;;;5032006;28;20177;-78
2024/01/07 11:54:10;;;;;;;10.20;8.98;;;5.30;99.90;;;;;;5034026;28;20203;-79
2024/01/07 11:56:56;;;;;;;9.77;8.68;;;5.30;99.90;;;;;;5038240;28;20723;-77
2024/01/07 11:59:42;;;;;;;10.52;8.45;;;5.30;99.90;;;;;;5049172;28;20231;-78
2024/01/07 12:02:32;;;;;;;14.93;9.85;;;5.30;99.90;;;;;;5037336;28;20192;-78
2024/01/07 12:05:18;;;;;;;13.52;10.23;;;5.30;99.90;;;;;;5035583;28;20694;-78
2024/01/07 12:07:44;;;;;;;13.25;11.15;;;5.20;99.90;;;;;;5014842;28;20212;-78
2024/01/07 12:10:11;;;;;;;12.30;9.20;;;5.10;99.90;;;;;;5003928;28;20208;-78
2024/01/07 12:12:39;;;;;;;14.02;11.98;;;5.10;99.90;;;;;;5017529;28;20536;-78
2024/01/07 12:15:07;;;;;;;12.60;10.95;;;5.10;99.90;;;;;;5000022;28;20185;-79
2024/01/07 12:17:33;;;;;;;14.38;12.18;;;5.10;99.90;;;;;;5050367;28;20251;-79
2024/01/07 12:20:00;;;;;;;10.18;8.75;;;5.10;99.90;;;;;;5003073;28;20288;-79
2024/01/07 12:22:29;;;;;;;12.25;9.80;;;5.10;99.90;;;;;;5019219;28;20204;-78
2024/01/07 12:25:03;;;;;;;10.13;8.63;;;5.10;99.90;;;;;;4999363;28;20180;-78
2024/01/07 12:27:29;;;;;;;12.55;9.95;;;5.00;99.90;;;;;;5014880;28;20193;-79
2024/01/07 12:29:56;;;;;;;11.18;10.00;;;5.00;99.90;;;;;;5015493;28;20174;-79
2024/01/07 12:32:22;;;;;;;10.63;8.38;;;5.00;99.90;;;;;;5017428;28;20209;-78
2024/01/07 12:34:48;;;;;;;13.80;8.23;;;5.00;99.90;;;;;;5044789;28;20292;-78
2024/01/07 12:37:14;;;;;;;12.23;9.37;;;4.90;99.90;;;;;;5027736;28;20247;-78
2024/01/07 12:39:40;;;;;;;13.23;8.38;;;4.90;99.90;;;;;;5026024;28;21258;-78
2024/01/07 12:42:07;;;;;;;13.38;9.50;;;5.00;99.90;;;;;;5016107;28;20667;-78
2024/01/07 12:44:33;;;;;;;10.32;8.13;;;5.00;99.90;;;;;;5018366;28;20172;-78
2024/01/07 12:46:59;;;;;;;8.90;8.00;;;5.00;99.90;;;;;;5034440;28;20204;-78
2024/01/07 12:49:24;;;;;;;10.23;9.23;;;5.10;99.90;;;;;;5014078;28;20175;-78
2024/01/07 12:51:50;;;;;;;13.13;8.43;;;5.10;99.90;;;;;;5034862;28;20266;-78
2024/01/07 12:54:16;;;;;;;12.00;8.43;;;5.10;99.90;;;;;;5027303;28;20181;-77
2024/01/07 12:56:42;;;;;;;12.00;8.00;;;5.10;99.90;;;;;;5023234;28;20623;-78
2024/01/07 12:59:12;;;;;;;10.00;7.80;;;5.20;99.90;;;;;;5019772;28;20983;-78
2024/01/07 13:01:38;;;;;;;11.60;8.07;;;5.20;99.90;;;;;;4995258;28;20203;-78